Time;durP1;ratioP1;P1;durP2;ratioP2;P2;SDS_P1;SDS_P2;PMS_P1;PMS_P2;Temp;Humidity;BMP_temperature;BMP_pressure;BME280_temperature;BME280_humidity;BME280_pressure;Samples;Min_cycle;Max_cycle;Signal;HPM_P1;HPM_P2
2023/04/12 00:00:31;;;;;;;3.87;2.93;;;7.50;99.90;6.80;99775;;;;580295;244;24127;-74
2023/04/12 00:03:03;;;;;;;3.53;2.77;;;7.50;99.90;6.80;99765;;;;580196;244;24080;-74
2023/04/12 00:05:27;;;;;;;6.80;3.07;;;7.50;99.90;6.80;99769;;;;579829;244;24091;-75
2023/04/12 00:07:59;;;;;;;4.83;3.53;;;7.60;99.90;6.90;99765;;;;579229;244;24079;-78
2023/04/12 00:10:24;;;;;;;4.17;3.77;;;7.60;99.90;6.80;99770;;;;579343;244;24088;-75
2023/04/12 00:12:52;;;;;;;5.83;3.80;;;7.60;99.90;6.90;99768;;;;579511;244;24103;-80
2023/04/12 00:15:20;;;;;;;5.63;4.10;;;7.60;99.90;6.80;99761;;;;579475;244;24071;-79
2023/04/12 00:17:47;;;;;;;5.00;4.23;;;7.50;99.90;6.80;99773;;;;579374;244;24056;-77
2023/04/12 00:20:17;;;;;;;4.47;3.90;;;7.60;99.90;6.80;99776;;;;578891;244;24187;-73
2023/04/12 00:22:44;;;;;;;5.77;3.53;;;7.50;99.90;6.90;99776;;;;578817;244;24068;-76
2023/04/12 00:25:12;;;;;;;5.57;4.13;;;7.60;99.90;6.90;99766;;;;579059;244;24044;-80
2023/04/12 00:27:40;;;;;;;9.27;5.17;;;7.60;99.90;6.90;99773;;;;579023;244;24073;-79
2023/04/12 00:30:11;;;;;;;6.93;4.87;;;7.60;99.90;6.90;99770;;;;587603;244;24061;-78
2023/04/12 00:32:36;;;;;;;8.13;4.60;;;7.60;99.90;6.90;99760;;;;578332;244;24085;-82
2023/04/12 00:35:08;;;;;;;7.00;4.43;;;7.60;99.90;6.90;99768;;;;578842;244;24074;-77
2023/04/12 00:37:36;;;;;;;7.97;4.40;;;7.60;99.90;6.90;99762;;;;578438;244;25143;-78
2023/04/12 00:40:00;;;;;;;4.70;3.80;;;7.60;99.90;6.90;99759;;;;578474;244;24059;-79
2023/04/12 00:42:28;;;;;;;6.30;3.70;;;7.60;99.90;6.90;99766;;;;579948;244;24065;-78
2023/04/12 00:44:56;;;;;;;7.33;4.27;;;7.60;99.90;6.90;99760;;;;580019;244;24096;-81
2023/04/12 00:47:24;;;;;;;4.00;3.60;;;7.60;99.90;6.90;99755;;;;579663;244;25119;-78
2023/04/12 00:49:52;;;;;;;5.87;3.40;;;7.60;99.90;6.90;99748;;;;579537;244;24090;-74
2023/04/12 00:52:21;;;;;;;4.17;3.80;;;7.50;99.90;6.80;99750;;;;579565;244;24074;-75
2023/04/12 00:54:48;;;;;;;4.50;3.77;;;7.50;99.90;6.80;99755;;;;579873;244;24062;-78
2023/04/12 00:57:16;;;;;;;5.87;4.50;;;7.50;99.90;6.80;99757;;;;579933;244;24135;-79
2023/04/12 00:59:45;;;;;;;9.93;7.03;;;7.50;99.90;6.70;99752;;;;574291;244;46050;-79
2023/04/12 01:02:12;;;;;;;10.70;5.10;;;7.50;99.90;6.70;99753;;;;579272;244;24080;-80
2023/04/12 01:04:42;;;;;;;6.63;5.33;;;7.40;99.90;6.70;99756;;;;579202;244;24077;-74
2023/04/12 01:07:45;;;;;;;7.53;4.60;;;7.40;99.90;6.70;99759;;;;579141;244;24065;-80
2023/04/12 01:10:24;;;;;;;5.67;4.40;;;6.70;99.90;6.70;99755;;;;579206;244;24060;-79
2023/04/12 01:12:55;;;;;;;5.10;3.90;;;7.40;99.90;6.70;99759;;;;585661;243;24062;-78
2023/04/12 01:15:26;;;;;;;13.50;4.37;;;7.40;99.90;6.70;99763;;;;583563;244;24130;-79
2023/04/12 01:18:01;;;;;;;5.47;4.07;;;7.40;99.90;6.70;99769;;;;579146;244;24092;-78
2023/04/12 01:20:43;;;;;;;4.03;3.63;;;7.40;99.90;6.70;99758;;;;578818;244;24120;-80
2023/04/12 01:23:14;;;;;;;5.63;4.10;;;7.40;99.90;6.70;99761;;;;587753;244;24092;-79
2023/04/12 01:25:52;;;;;;;4.70;4.00;;;7.40;99.90;6.70;99748;;;;578920;244;24041;-78
2023/04/12 01:28:22;;;;;;;4.63;3.63;;;7.40;99.90;6.70;99746;;;;578770;244;24091;-78
2023/04/12 01:30:51;;;;;;;6.03;4.03;;;7.40;99.90;6.60;99746;;;;588063;244;24112;-79
2023/04/12 01:33:18;;;;;;;3.93;3.17;;;7.40;99.90;6.60;99759;;;;579109;244;24131;-79
2023/04/12 01:35:46;;;;;;;5.67;3.93;;;7.40;99.90;6.60;99760;;;;577419;249;24119;-79
2023/04/12 01:38:18;;;;;;;4.90;3.47;;;7.40;99.90;6.60;99754;;;;578942;244;24085;-72
2023/04/12 01:40:42;;;;;;;4.43;3.90;;;7.40;99.90;6.60;99759;;;;578583;244;24057;-75
2023/04/12 01:43:09;;;;;;;4.50;3.23;;;7.30;99.90;6.50;99756;;;;576914;243;24079;-75
2023/04/12 01:45:40;;;;;;;3.40;3.07;;;7.30;99.90;6.50;99758;;;;567581;249;24095;-74
2023/04/12 01:48:05;;;;;;;5.30;2.80;;;7.30;99.90;6.50;99760;;;;578581;244;24115;-77
2023/04/12 01:50:54;;;;;;;4.93;4.10;;;7.30;99.90;6.50;99768;;;;577058;249;24113;-74
2023/04/12 01:53:59;;;;;;;4.50;3.87;;;7.30;99.90;6.60;99758;;;;577171;247;24108;-75
2023/04/12 01:56:26;;;;;;;7.13;3.23;;;7.30;99.90;6.50;99757;;;;577967;247;24112;-75
2023/04/12 01:58:58;;;;;;;4.20;3.50;;;7.30;99.90;6.60;99752;;;;577669;245;24136;-79
2023/04/12 02:01:23;;;;;;;4.83;3.53;;;7.30;99.90;6.60;99767;;;;587913;244;24069;-75
2023/04/12 02:03:54;;;;;;;6.03;3.67;;;7.30;99.90;6.60;99761;;;;579227;244;24048;-76
2023/04/12 02:06:22;;;;;;;5.57;4.27;;;7.30;99.90;6.60;99762;;;;587889;244;24069;-73
2023/04/12 02:08:50;;;;;;;4.00;3.60;;;7.30;99.90;6.60;99756;;;;579324;244;24093;-78
2023/04/12 02:11:18;;;;;;;5.73;3.93;;;7.40;99.90;6.60;99757;;;;578320;244;24080;-76
2023/04/12 02:13:46;;;;;;;4.77;3.57;;;7.40;99.90;6.60;99757;;;;579138;244;24131;-76
2023/04/12 02:16:14;;;;;;;6.73;3.60;;;7.40;99.90;6.60;99748;;;;578970;244;24076;-75
2023/04/12 02:18:42;;;;;;;4.27;3.40;;;7.40;99.90;6.60;99760;;;;578891;244;24095;-77
2023/04/12 02:21:10;;;;;;;5.57;3.93;;;7.40;99.90;6.60;99751;;;;579101;244;24086;-76
2023/04/12 02:23:40;;;;;;;6.90;5.87;;;7.30;99.90;6.60;99758;;;;573970;244;35145;-76
2023/04/12 02:26:06;;;;;;;5.80;4.10;;;7.30;99.90;6.60;99744;;;;579060;244;24131;-77
2023/04/12 02:28:36;;;;;;;6.77;4.23;;;7.40;99.90;6.60;99745;;;;578859;244;24076;-72
2023/04/12 02:31:03;;;;;;;6.87;4.13;;;7.30;99.90;6.60;99748;;;;578830;244;24062;-76
2023/04/12 02:33:31;;;;;;;4.37;3.97;;;7.40;99.90;6.60;99747;;;;578185;244;24062;-74
2023/04/12 02:36:02;;;;;;;4.93;3.93;;;7.40;99.90;6.60;99736;;;;579033;244;24132;-74
2023/04/12 02:38:27;;;;;;;6.10;3.93;;;7.40;99.90;6.60;99743;;;;578861;244;24068;-77
2023/04/12 02:40:55;;;;;;;7.60;6.23;;;7.40;99.90;6.60;99743;;;;573756;244;46077;-75
2023/04/12 02:43:23;;;;;;;5.27;4.57;;;7.30;99.90;6.50;99746;;;;579051;244;24064;-75
2023/04/12 02:45:52;;;;;;;7.17;4.30;;;7.30;99.90;6.50;99748;;;;579052;244;24054;-75
2023/04/12 02:48:20;;;;;;;7.27;4.13;;;7.30;99.90;6.50;99749;;;;576641;244;24081;-76
2023/04/12 02:50:48;;;;;;;6.17;3.87;;;7.30;99.90;6.50;99761;;;;578706;244;24104;-75
2023/04/12 02:53:18;;;;;;;4.47;3.90;;;7.30;99.90;6.50;99752;;;;578633;244;24047;-76
2023/04/12 02:55:44;;;;;;;4.00;3.40;;;7.30;99.90;6.50;99757;;;;578914;244;24064;-74
2023/04/12 02:58:12;;;;;;;4.57;3.33;;;7.30;99.90;6.50;99745;;;;578785;244;24077;-74
2023/04/12 03:00:42;;;;;;;5.10;3.97;;;7.30;99.90;6.50;99747;;;;578746;244;24082;-74
2023/04/12 03:03:09;;;;;;;7.10;3.97;;;7.30;99.90;6.50;99754;;;;578650;244;24053;-78
2023/04/12 03:05:37;;;;;;;5.53;4.17;;;7.30;99.90;6.50;99754;;;;580001;244;24056;-81
2023/04/12 03:08:04;;;;;;;9.40;4.20;;;7.30;99.90;6.60;99750;;;;579953;244;24050;-78
2023/04/12 03:10:32;;;;;;;6.17;4.10;;;7.30;99.90;6.60;99758;;;;579032;244;24068;-78
2023/04/12 03:13:00;;;;;;;6.03;4.27;;;7.30;99.90;6.60;99759;;;;579679;244;24065;-76
2023/04/12 03:15:28;;;;;;;5.13;3.93;;;7.40;99.90;6.60;99769;;;;579318;244;24097;-77
2023/04/12 03:17:56;;;;;;;5.30;3.87;;;7.40;99.90;6.60;99757;;;;579697;244;24050;-75
2023/04/12 03:20:24;;;;;;;6.97;6.17;;;7.40;99.90;6.70;99759;;;;574427;244;35088;-77
2023/04/12 03:22:52;;;;;;;8.20;4.97;;;7.40;99.90;6.70;99760;;;;579061;244;24137;-77
2023/04/12 03:25:23;;;;;;;6.70;4.67;;;7.50;99.90;6.70;99766;;;;579189;244;24069;-79
2023/04/12 03:27:50;;;;;;;6.30;4.63;;;7.50;99.90;6.70;99759;;;;578702;244;24134;-76
2023/04/12 03:30:16;;;;;;;4.80;3.57;;;7.50;99.90;6.70;99767;;;;578861;244;24150;-77
2023/04/12 03:32:44;;;;;;;6.63;4.03;;;7.50;99.90;6.70;99767;;;;578980;244;24122;-75
2023/04/12 03:35:11;;;;;;;4.93;3.87;;;7.50;99.90;6.70;99766;;;;578859;244;24068;-75
2023/04/12 03:37:42;;;;;;;6.97;3.67;;;7.50;99.90;6.70;99763;;;;579009;244;24115;-74
2023/04/12 03:40:10;;;;;;;6.27;3.27;;;7.50;99.90;6.70;99761;;;;578746;244;24083;-75
2023/04/12 03:42:38;;;;;;;3.53;3.10;;;7.50;99.90;6.70;99750;;;;578655;244;24068;-74
2023/04/12 03:45:06;;;;;;;3.97;3.10;;;7.60;99.90;6.70;99742;;;;578658;244;24068;-73
2023/04/12 03:47:34;;;;;;;5.87;4.03;;;7.50;99.90;6.70;99743;;;;578540;244;24093;-75
2023/04/12 03:50:09;;;;;;;7.00;4.30;;;7.50;99.90;6.60;99740;;;;578615;244;24088;-75
2023/04/12 03:52:35;;;;;;;4.77;3.40;;;7.40;99.90;6.60;99734;;;;578579;244;24102;-75
2023/04/12 03:55:00;;;;;;;4.73;3.27;;;7.40;99.90;6.60;99734;;;;579320;244;24062;-78
2023/04/12 03:57:28;;;;;;;3.47;3.17;;;7.40;99.90;6.60;99740;;;;579393;244;24060;-78
2023/04/12 03:59:59;;;;;;;7.10;3.40;;;7.40;99.90;6.60;99730;;;;579520;244;24083;-76
2023/04/12 04:02:25;;;;;;;9.17;3.47;;;7.40;99.90;6.60;99735;;;;579334;244;24067;-79
2023/04/12 04:04:52;;;;;;;5.50;3.57;;;7.30;99.90;6.50;99733;;;;579263;244;24048;-77
2023/04/12 04:07:20;;;;;;;5.93;3.83;;;7.30;99.90;6.50;99736;;;;579265;244;24090;-74
2023/04/12 04:09:49;;;;;;;5.77;3.17;;;7.30;99.90;6.60;99741;;;;579255;244;24057;-76
2023/04/12 04:12:16;;;;;;;4.67;3.67;;;7.30;99.90;6.60;99742;;;;588144;244;24058;-78
2023/04/12 04:14:44;;;;;;;7.53;3.77;;;7.30;99.90;6.60;99742;;;;579125;244;24040;-78
2023/04/12 04:17:12;;;;;;;7.43;4.37;;;7.30;99.90;6.60;99737;;;;580427;244;24063;-79
2023/04/12 04:19:40;;;;;;;5.00;3.80;;;7.40;99.90;6.60;99738;;;;580208;244;24110;-75
2023/04/12 04:22:11;;;;;;;5.87;4.03;;;7.40;99.90;6.70;99729;;;;579902;244;24061;-77
2023/04/12 04:24:37;;;;;;;6.23;4.30;;;7.40;99.90;6.70;99732;;;;579829;244;25086;-79
2023/04/12 04:27:05;;;;;;;8.03;4.43;;;7.50;99.90;6.80;99733;;;;579651;244;24058;-78
2023/04/12 04:29:33;;;;;;;5.20;3.97;;;7.50;99.90;6.80;99733;;;;579695;244;24115;-80
2023/04/12 04:32:01;;;;;;;7.40;4.20;;;7.60;99.90;6.90;99727;;;;579730;244;24057;-74
2023/04/12 04:34:30;;;;;;;7.57;4.40;;;7.70;99.90;7.00;99720;;;;579521;244;24095;-80
2023/04/12 04:36:57;;;;;;;5.80;4.00;;;7.70;99.90;7.00;99720;;;;579372;244;24068;-78
2023/04/12 04:39:26;;;;;;;8.10;4.60;;;7.80;99.90;7.10;99720;;;;579382;244;25087;-78
2023/04/12 04:41:53;;;;;;;6.67;4.90;;;7.80;99.90;7.10;99724;;;;579557;244;24083;-75
2023/04/12 04:44:24;;;;;;;4.37;3.70;;;7.90;99.90;7.10;99730;;;;579536;244;24054;-75
2023/04/12 04:46:50;;;;;;;5.60;4.50;;;7.90;99.90;7.20;99724;;;;579350;244;24102;-78
2023/04/12 04:49:21;;;;;;;6.93;4.47;;;7.90;99.90;7.30;99741;;;;579339;244;24062;-78
2023/04/12 04:51:47;;;;;;;5.73;4.77;;;8.10;99.90;7.40;99749;;;;578433;244;24087;-74
2023/04/12 04:54:15;;;;;;;10.17;5.07;;;8.10;99.90;7.50;99738;;;;578725;244;24054;-79
2023/04/12 04:56:42;;;;;;;9.87;5.40;;;8.30;99.90;7.60;99737;;;;579034;244;24079;-76
2023/04/12 04:59:10;;;;;;;9.70;5.83;;;8.30;99.90;7.70;99739;;;;578762;244;24114;-80
2023/04/12 05:01:39;;;;;;;10.27;5.63;;;8.40;99.90;7.80;99742;;;;578720;244;24046;-78
2023/04/12 05:04:07;;;;;;;10.17;5.90;;;8.70;99.90;8.00;99739;;;;579184;244;24064;-80
2023/04/12 05:06:35;;;;;;;7.23;5.57;;;8.70;99.90;8.10;99735;;;;578857;244;24081;-78
2023/04/12 05:09:04;;;;;;;7.90;5.60;;;8.80;99.90;8.10;99741;;;;578727;244;24073;-75
2023/04/12 05:11:30;;;;;;;10.13;6.43;;;8.90;99.90;8.00;99734;;;;578735;244;24103;-74
2023/04/12 05:13:59;;;;;;;7.70;5.70;;;8.90;99.90;8.10;99741;;;;578638;244;24054;-75
2023/04/12 05:16:26;;;;;;;8.40;5.57;;;8.80;99.90;8.10;99731;;;;578794;244;24062;-76
2023/04/12 05:18:54;;;;;;;8.00;5.40;;;8.90;99.90;8.20;99736;;;;578668;244;24057;-75
2023/04/12 05:21:22;;;;;;;7.60;4.70;;;9.00;99.90;8.40;99732;;;;578566;244;24057;-76
2023/04/12 05:23:51;;;;;;;7.80;5.57;;;9.80;99.90;9.30;99732;;;;578749;244;24069;-76
2023/04/12 05:26:20;;;;;;;9.87;5.87;;;9.80;99.90;10.60;99736;;;;578576;244;24066;-79
2023/04/12 05:28:47;;;;;;;9.17;6.70;;;11.00;99.90;11.70;99744;;;;579977;244;24052;-78
2023/04/12 05:31:14;;;;;;;7.37;6.20;;;12.10;99.90;12.50;99754;;;;579749;244;24038;-75
2023/04/12 05:33:48;;;;;;;6.60;5.27;;;13.00;99.90;12.40;99754;;;;579765;244;24116;-76
2023/04/12 05:36:11;;;;;;;5.13;4.63;;;13.00;99.90;12.10;99752;;;;579320;244;24163;-76
2023/04/12 05:38:39;;;;;;;7.27;4.47;;;12.90;99.90;12.60;99755;;;;579113;244;24059;-77
2023/04/12 05:41:07;;;;;;;5.23;4.73;;;13.40;99.90;12.90;99757;;;;579263;244;24082;-79
2023/04/12 05:43:36;;;;;;;6.23;4.80;;;14.30;99.90;13.80;99762;;;;579037;244;24057;-79
2023/04/12 05:46:03;;;;;;;8.43;5.03;;;14.30;99.90;14.80;99759;;;;579166;244;24069;-79
2023/04/12 05:48:31;;;;;;;5.43;4.93;;;15.30;99.90;15.50;99762;;;;587596;244;24097;-76
2023/04/12 05:50:59;;;;;;;6.53;5.30;;;15.90;99.90;16.00;99764;;;;578859;244;24093;-78
2023/04/12 05:53:28;;;;;;;5.37;4.87;;;16.50;99.90;16.10;99755;;;;579336;244;24042;-79
2023/04/12 05:55:55;;;;;;;6.77;4.37;;;16.70;99.90;15.60;99755;;;;579290;244;24052;-75
2023/04/12 05:58:23;;;;;;;4.00;3.70;;;16.50;99.90;15.00;99749;;;;578989;244;24090;-77
2023/04/12 06:00:54;;;;;;;4.70;4.17;;;16.00;99.90;14.60;99752;;;;578944;244;25114;-78
2023/04/12 06:03:19;;;;;;;4.93;3.73;;;15.50;99.90;14.80;99754;;;;579102;244;24046;-78
2023/04/12 06:05:47;;;;;;;5.97;4.97;;;15.40;99.90;14.90;99748;;;;573657;244;35100;-79
2023/04/12 06:08:15;;;;;;;8.43;5.37;;;15.60;99.90;15.70;99747;;;;578585;244;24123;-75
2023/04/12 06:10:43;;;;;;;5.93;4.67;;;16.10;99.90;16.20;99747;;;;578708;244;24089;-81
2023/04/12 06:13:10;;;;;;;4.10;3.70;;;16.70;99.90;16.90;99748;;;;578590;244;24043;-81
2023/04/12 06:15:38;;;;;;;5.47;4.07;;;17.20;99.90;17.40;99747;;;;578720;244;24050;-82
2023/04/12 06:18:11;;;;;;;5.03;3.70;;;17.90;99.90;17.10;99744;;;;578714;244;24034;-80
2023/04/12 06:20:37;;;;;;;4.90;4.13;;;17.80;99.90;17.00;99747;;;;578529;244;24045;-79
2023/04/12 06:23:05;;;;;;;5.27;4.40;;;17.60;99.90;17.80;99739;;;;587625;244;24057;-80
2023/04/12 06:25:33;;;;;;;4.60;4.10;;;18.20;99.90;19.10;99744;;;;578619;244;24079;-78
2023/04/12 06:28:01;;;;;;;3.57;3.30;;;19.30;99.90;19.50;99756;;;;578763;244;23062;-80
2023/04/12 06:30:32;;;;;;;4.43;3.87;;;19.90;99.90;18.90;99756;;;;578684;244;24049;-80
2023/04/12 06:32:57;;;;;;;4.47;4.07;;;19.70;99.90;18.00;99763;;;;578627;244;24067;-77
2023/04/12 06:35:25;;;;;;;5.53;3.67;;;19.00;99.90;17.20;99759;;;;578740;244;24042;-78
2023/04/12 06:37:52;;;;;;;3.57;3.20;;;18.20;99.90;16.50;99759;;;;578733;244;23102;-79
2023/04/12 06:40:23;;;;;;;3.60;3.30;;;17.50;99.90;16.00;99751;;;;580386;244;24037;-78
2023/04/12 06:42:48;;;;;;;3.40;3.20;;;16.90;99.90;15.60;99756;;;;579921;244;24097;-79
2023/04/12 06:45:16;;;;;;;4.47;3.93;;;16.40;99.90;15.40;99756;;;;580054;244;24064;-76
2023/04/12 06:47:44;;;;;;;4.30;3.90;;;16.10;99.90;15.00;99760;;;;580016;244;24041;-75
2023/04/12 06:50:12;;;;;;;4.77;3.80;;;15.70;99.90;14.50;99766;;;;579562;244;24164;-75
2023/04/12 06:52:40;;;;;;;4.30;3.90;;;15.30;99.90;14.00;99764;;;;579454;244;24033;-79
2023/04/12 06:55:08;;;;;;;8.03;4.23;;;14.90;99.90;13.70;99773;;;;577702;244;24063;-76
2023/04/12 06:57:40;;;;;;;4.67;3.73;;;14.20;99.90;13.40;99765;;;;578921;244;24111;-76
2023/04/12 07:00:05;;;;;;;5.23;3.70;;;14.20;99.90;13.20;99770;;;;579167;244;24056;-77
2023/04/12 07:02:33;;;;;;;6.17;3.93;;;13.90;99.90;12.90;99767;;;;578845;244;24097;-75
2023/04/12 07:05:00;;;;;;;8.17;3.83;;;13.60;99.90;12.50;99767;;;;579367;244;24027;-77
2023/04/12 07:07:28;;;;;;;10.37;4.50;;;13.40;99.90;12.20;99760;;;;579349;244;24043;-78
2023/04/12 07:09:56;;;;;;;3.50;3.20;;;13.10;99.90;12.10;99760;;;;579362;244;24049;-79
2023/04/12 07:12:24;;;;;;;6.50;3.73;;;12.90;99.90;11.90;99766;;;;579374;244;24059;-77
2023/04/12 07:14:52;;;;;;;5.23;3.60;;;12.70;99.90;11.90;99759;;;;579301;244;24042;-78
2023/04/12 07:17:21;;;;;;;4.43;3.30;;;12.50;99.90;11.70;99757;;;;579344;244;24043;-79
2023/04/12 07:19:49;;;;;;;3.83;3.43;;;12.50;99.90;11.60;99766;;;;579269;244;24022;-78
2023/04/12 07:22:17;;;;;;;3.60;3.30;;;12.40;99.90;11.60;99763;;;;579208;244;24038;-78
2023/04/12 07:24:45;;;;;;;7.60;4.33;;;12.30;99.90;11.60;99762;;;;579158;244;24049;-77
2023/04/12 07:27:13;;;;;;;7.60;5.03;;;12.40;99.90;11.70;99766;;;;579142;244;24080;-77
2023/04/12 07:29:42;;;;;;;5.47;3.47;;;12.50;99.90;11.80;99763;;;;579033;244;24083;-77
2023/04/12 07:32:10;;;;;;;4.23;3.83;;;12.50;99.90;11.80;99764;;;;579037;244;24056;-79
2023/04/12 07:34:38;;;;;;;8.37;5.10;;;12.50;99.90;11.90;99773;;;;578637;244;24045;-77
2023/04/12 07:37:06;;;;;;;7.20;4.93;;;12.60;99.90;11.90;99763;;;;579032;244;24041;-79
2023/04/12 07:39:34;;;;;;;7.07;5.47;;;12.60;99.90;11.90;99761;;;;579074;244;24106;-76
2023/04/12 07:42:02;;;;;;;12.60;5.93;;;12.60;99.90;11.90;99759;;;;579061;244;24097;-77
2023/04/12 07:44:30;;;;;;;6.43;5.10;;;12.70;99.90;11.70;99766;;;;579212;244;24030;-78
2023/04/12 07:46:58;;;;;;;5.37;4.87;;;12.60;99.90;11.60;99768;;;;579098;244;24052;-76
2023/04/12 07:49:26;;;;;;;5.40;4.87;;;12.40;99.90;11.50;99767;;;;579097;244;24043;-76
2023/04/12 07:51:54;;;;;;;5.63;5.10;;;12.30;99.90;11.50;99768;;;;580321;244;24036;-78
2023/04/12 07:54:26;;;;;;;7.23;4.43;;;12.20;99.90;11.30;99770;;;;580173;244;24097;-74
2023/04/12 07:56:58;;;;;;;9.87;4.67;;;12.10;99.90;11.20;99766;;;;579191;244;24068;-78
2023/04/12 07:59:25;;;;;;;5.87;5.00;;;12.10;99.90;11.30;99758;;;;579265;244;24067;-79
2023/04/12 08:01:53;;;;;;;8.53;6.03;;;12.10;99.90;11.30;99751;;;;574600;244;35113;-76
2023/04/12 08:04:21;;;;;;;6.87;4.70;;;12.10;99.90;11.50;99743;;;;579594;244;25083;-75
2023/04/12 08:06:50;;;;;;;8.13;3.90;;;12.60;99.90;11.90;99742;;;;579590;244;24042;-75
2023/04/12 08:09:18;;;;;;;5.63;3.53;;;13.10;99.90;12.50;99747;;;;579396;244;24047;-77
2023/04/12 08:11:46;;;;;;;5.75;4.20;;;13.10;99.90;13.10;99743;;;;574268;244;35083;-75
2023/04/12 08:14:14;;;;;;;4.83;3.97;;;13.70;99.90;13.40;99747;;;;579315;244;25103;-76
2023/04/12 08:16:42;;;;;;;5.17;4.07;;;14.10;99.90;13.40;99750;;;;579289;244;24085;-76
2023/04/12 08:19:11;;;;;;;5.73;3.90;;;14.40;99.90;13.50;99742;;;;579342;244;24073;-75
2023/04/12 08:21:39;;;;;;;5.40;4.20;;;14.60;99.90;13.90;99746;;;;579278;244;24047;-76
2023/04/12 08:24:08;;;;;;;4.60;3.87;;;14.60;99.90;14.20;99739;;;;579307;244;24079;-75
2023/04/12 08:26:35;;;;;;;6.40;4.20;;;14.90;99.90;14.70;99743;;;;579140;244;24097;-75
2023/04/12 08:29:03;;;;;;;4.33;3.90;;;15.30;99.90;15.10;99739;;;;579053;244;24093;-77
2023/04/12 08:31:31;;;;;;;5.27;4.23;;;15.70;99.90;15.40;99741;;;;579014;244;24087;-77
2023/04/12 08:33:59;;;;;;;4.63;4.13;;;16.10;99.90;15.60;99740;;;;579001;244;24045;-75
2023/04/12 08:36:27;;;;;;;5.73;4.80;;;16.40;99.90;15.80;99742;;;;579050;244;24038;-75
2023/04/12 08:38:57;;;;;;;7.13;4.43;;;16.60;99.90;16.10;99739;;;;579026;244;24062;-76
2023/04/12 08:41:28;;;;;;;5.83;4.53;;;16.80;99.90;17.00;99735;;;;587983;244;24043;-76
2023/04/12 08:43:57;;;;;;;8.10;5.30;;;19.20;99.90;19.20;99732;;;;576880;244;24082;-76
2023/04/12 08:46:28;;;;;;;10.20;5.03;;;19.20;99.90;21.50;99746;;;;579134;244;24093;-76
2023/04/12 08:48:53;;;;;;;5.10;4.60;;;21.70;97.60;22.20;99753;;;;578615;244;24049;-76
2023/04/12 08:51:21;;;;;;;5.90;5.30;;;23.00;83.50;21.60;99751;;;;579055;244;24090;-75
2023/04/12 08:53:50;;;;;;;6.47;5.87;;;22.90;83.40;20.90;99729;;;;579072;244;24081;-76
2023/04/12 08:56:17;;;;;;;6.63;6.03;;;22.50;83.80;21.60;99735;;;;579009;244;24120;-76
2023/04/12 08:58:47;;;;;;;6.93;6.20;;;22.60;86.50;23.40;99738;;;;578579;244;24056;-75
2023/04/12 09:01:13;;;;;;;5.93;5.43;;;23.90;82.70;25.30;99744;;;;578575;244;23088;-76
2023/04/12 09:03:46;;;;;;;5.57;4.97;;;25.80;72.60;26.80;99745;;;;588965;242;24143;-81
2023/04/12 09:06:14;;;;;;;6.03;5.53;;;27.40;68.20;28.30;99742;;;;588083;244;23087;-79
2023/04/12 09:08:53;;;;;;;6.15;5.65;;;28.90;63.60;29.10;99744;;;;579529;243;23072;-81
2023/04/12 09:11:24;;;;;;;5.65;5.15;;;30.00;56.60;29.00;99749;;;;579482;244;23064;-76
2023/04/12 09:13:52;;;;;;;7.15;5.65;;;30.20;54.00;27.20;99747;;;;579444;244;23064;-77
2023/04/12 09:16:39;;;;;;;7.07;6.47;;;27.60;55.80;25.40;99736;;;;588582;244;23073;-76
2023/04/12 09:19:10;;;;;;;7.03;6.37;;;27.50;55.60;23.60;99735;;;;578846;244;24073;-79
2023/04/12 09:21:38;;;;;;;7.23;6.60;;;25.90;56.90;22.30;99738;;;;577842;244;23063;-80
2023/04/12 09:24:02;;;;;;;7.80;6.97;;;24.40;60.60;21.30;99732;;;;579351;244;23082;-76
2023/04/12 09:26:31;;;;;;;5.63;5.10;;;23.10;63.80;20.60;99732;;;;579738;244;24097;-81
2023/04/12 09:28:58;;;;;;;7.00;6.37;;;22.00;64.70;19.90;99729;;;;580032;244;24085;-75
2023/04/12 09:31:29;;;;;;;5.37;4.87;;;21.20;68.70;19.50;99733;;;;579467;244;25135;-81
2023/04/12 09:33:54;;;;;;;9.27;5.37;;;20.50;71.00;19.10;99731;;;;579014;244;23221;-79
2023/04/12 09:36:22;;;;;;;8.43;6.00;;;20.00;72.00;18.70;99736;;;;586329;244;24072;-76
2023/04/12 09:39:00;;;;;;;6.37;5.77;;;19.60;74.10;18.10;99742;;;;579242;244;24064;-75
2023/04/12 09:41:31;;;;;;;8.13;6.20;;;19.00;76.00;17.50;99738;;;;579021;244;24118;-75
2023/04/12 09:43:55;;;;;;;9.70;8.77;;;18.40;79.30;17.00;99734;;;;578973;244;24069;-79
2023/04/12 09:46:23;;;;;;;13.30;10.07;;;17.90;80.60;16.40;99732;;;;578858;244;23058;-79
2023/04/12 09:48:51;;;;;;;13.60;9.73;;;17.40;83.90;15.70;99736;;;;567593;249;24076;-77
2023/04/12 09:51:31;;;;;;;12.17;8.47;;;16.70;86.50;15.20;99732;;;;578702;244;24074;-79
2023/04/12 09:53:59;;;;;;;9.97;7.87;;;15.70;90.80;14.90;99739;;;;568357;249;24107;-79
2023/04/12 09:56:30;;;;;;;12.27;8.70;;;15.70;90.80;14.60;99737;;;;578795;244;24053;-76
2023/04/12 09:59:04;;;;;;;10.13;7.67;;;15.50;92.50;14.60;99720;;;;577101;247;24186;-78
2023/04/12 10:01:40;;;;;;;8.77;7.33;;;15.40;93.90;14.50;99725;;;;578670;244;24094;-77
2023/04/12 10:04:08;;;;;;;13.90;9.77;;;15.30;94.50;14.50;99723;;;;568240;249;24165;-75
2023/04/12 10:06:36;;;;;;;11.23;9.40;;;15.30;95.70;14.80;99708;;;;578977;244;24119;-77
2023/04/12 10:09:07;;;;;;;13.47;8.73;;;15.50;96.70;15.10;99705;;;;570970;249;24113;-76
2023/04/12 10:11:36;;;;;;;11.23;8.83;;;15.70;97.00;15.30;99709;;;;576805;244;24080;-76
2023/04/12 10:14:00;;;;;;;15.67;10.20;;;15.90;96.80;15.50;99718;;;;571452;248;24109;-76
2023/04/12 10:16:28;;;;;;;12.47;9.03;;;16.10;96.70;15.80;99711;;;;578260;248;24085;-76
2023/04/12 10:18:59;;;;;;;11.70;7.57;;;16.40;96.40;16.10;99704;;;;579493;244;24103;-80
2023/04/12 10:21:23;;;;;;;14.37;8.63;;;16.70;94.70;16.20;99705;;;;568593;249;24204;-79
2023/04/12 10:23:55;;;;;;;14.93;9.37;;;17.00;93.90;16.20;99709;;;;577156;244;24046;-79
2023/04/12 10:26:19;;;;;;;16.37;10.83;;;17.00;94.20;16.40;99703;;;;568347;249;24134;-76
2023/04/12 10:28:47;;;;;;;12.33;9.60;;;17.20;94.40;16.40;99702;;;;566359;249;24123;-81
2023/04/12 10:31:31;;;;;;;10.27;8.97;;;17.20;93.90;16.50;99705;;;;585507;244;24063;-79
2023/04/12 10:33:59;;;;;;;20.73;9.57;;;17.20;94.30;16.50;99701;;;;568260;249;24140;-79
2023/04/12 10:36:57;;;;;;;16.00;11.03;;;17.20;94.00;16.60;99702;;;;587410;244;24119;-80
2023/04/12 10:39:40;;;;;;;16.13;11.43;;;17.20;93.80;16.50;99700;;;;573302;249;24128;-79
2023/04/12 10:42:29;;;;;;;14.50;9.47;;;17.20;94.20;16.50;99700;;;;567790;249;23094;-80
2023/04/12 10:44:57;;;;;;;14.93;9.93;;;17.20;93.70;16.30;99695;;;;568353;249;24151;-80
2023/04/12 10:47:54;;;;;;;14.07;9.93;;;17.10;93.50;16.10;99694;;;;562410;249;24181;-79
2023/04/12 10:50:26;;;;;;;12.77;10.30;;;16.90;94.30;15.90;99692;;;;578991;244;24084;-78
2023/04/12 10:53:17;;;;;;;11.30;7.73;;;16.70;95.60;15.90;99692;;;;578658;243;24099;-79
2023/04/12 10:55:41;;;;;;;13.83;9.47;;;16.70;95.60;15.70;99692;;;;564727;249;24083;-79
2023/04/12 10:58:08;;;;;;;12.60;9.57;;;16.60;95.70;15.50;99694;;;;578224;244;24055;-79
2023/04/12 11:00:56;;;;;;;15.50;7.97;;;16.30;96.80;15.70;99686;;;;567890;249;24077;-80
2023/04/12 11:03:26;;;;;;;11.57;7.47;;;16.30;96.80;15.80;99682;;;;564602;249;24100;-80
2023/04/12 11:06:03;;;;;;;13.77;7.60;;;16.40;96.80;15.80;99684;;;;572608;249;24079;-80
2023/04/12 11:08:31;;;;;;;8.47;7.63;;;16.50;96.40;15.90;99673;;;;572338;249;24141;-78
2023/04/12 11:11:03;;;;;;;11.93;7.90;;;16.60;96.80;16.00;99672;;;;578589;244;24121;-81
2023/04/12 11:13:28;;;;;;;13.20;9.77;;;16.70;96.80;16.10;99674;;;;586942;244;24104;-77
2023/04/12 11:15:58;;;;;;;13.70;9.07;;;16.70;96.30;15.90;99671;;;;578538;244;24058;-77
2023/04/12 11:18:29;;;;;;;14.60;8.57;;;16.60;96.10;15.60;99671;;;;578517;244;24045;-80
2023/04/12 11:20:57;;;;;;;12.37;8.73;;;16.40;96.50;15.40;99674;;;;578442;244;24088;-79
2023/04/12 11:23:22;;;;;;;11.87;8.40;;;16.10;97.60;15.30;99672;;;;578243;244;24068;-80
2023/04/12 11:25:53;;;;;;;11.13;8.43;;;16.00;97.60;15.00;99675;;;;577284;244;24119;-78
2023/04/12 11:28:25;;;;;;;11.97;8.10;;;15.50;99.10;14.70;99675;;;;579870;244;24069;-78
2023/04/12 11:30:56;;;;;;;16.97;10.07;;;15.50;99.10;14.40;99671;;;;588076;241;24104;-80
2023/04/12 11:33:42;;;;;;;13.50;8.43;;;15.20;99.90;14.30;99672;;;;568059;249;24085;-77